sensor_id;sensor_type;location;lat;lon;timestamp;pressure;altitude;pressure_sealevel;temperature;humidity
72975;BME280;74127;54.228;37.632;2024-03-06T00:02:52;1001.97;;;-3.63;65.05078
72975;BME280;74127;54.228;37.632;2024-03-06T00:06:52;1001.97;;;-3.63;65.05078
72975;BME280;74127;54.228;37.632;2024-03-06T00:10:52;1002.054;;;-3.64;64.80664
72975;BME280;74127;54.228;37.632;2024-03-06T00:14:52;1001.984;;;-3.58;64.80566
72975;BME280;74127;54.228;37.632;2024-03-06T00:18:52;1002.087;;;-3.62;64.88281
72975;BME280;74127;54.228;37.632;2024-03-06T00:22:52;1002.059;;;-3.69;65.30273
72975;BME280;74127;54.228;37.632;2024-03-06T00:26:52;1002.059;;;-3.69;65.30273
72975;BME280;74127;54.228;37.632;2024-03-06T00:30:52;1002.251;;;-3.73;65.37891
72975;BME280;74127;54.228;37.632;2024-03-06T00:34:52;1002.241;;;-3.75;65.80664
72975;BME280;74127;54.228;37.632;2024-03-06T00:38:52;1002.233;;;-3.74;65.75488
72975;BME280;74127;54.228;37.632;2024-03-06T00:42:52;1002.149;;;-3.82;66.10059
72975;BME280;74127;54.228;37.632;2024-03-06T00:46:52;1002.149;;;-3.82;66.10059
72975;BME280;74127;54.228;37.632;2024-03-06T00:50:52;1002.22;;;-3.84;66.11719
72975;BME280;74127;54.228;37.632;2024-03-06T00:54:52;1002.247;;;-3.87;66.28027
72975;BME280;74127;54.228;37.632;2024-03-06T00:58:52;1002.256;;;-3.83;66.24512
72975;BME280;74127;54.228;37.632;2024-03-06T01:02:52;1002.203;;;-3.84;66.2334
72975;BME280;74127;54.228;37.632;2024-03-06T01:06:52;1002.203;;;-3.84;66.2334
72975;BME280;74127;54.228;37.632;2024-03-06T01:10:52;1002.174;;;-3.89;66.52832
72975;BME280;74127;54.228;37.632;2024-03-06T01:18:52;1002.153;;;-4.03;66.94824
72975;BME280;74127;54.228;37.632;2024-03-06T01:22:52;1002.198;;;-4.08;67.10547
72975;BME280;74127;54.228;37.632;2024-03-06T01:26:52;1002.198;;;-4.08;67.10547
72975;BME280;74127;54.228;37.632;2024-03-06T01:30:52;1002.257;;;-4.13;67.27637
72975;BME280;74127;54.228;37.632;2024-03-06T01:34:52;1002.285;;;-4.07;67.16113
72975;BME280;74127;54.228;37.632;2024-03-06T01:38:52;1002.296;;;-4.3;67.31348
72975;BME280;74127;54.228;37.632;2024-03-06T01:42:52;1002.449;;;-4.28;67.47168
72975;BME280;74127;54.228;37.632;2024-03-06T01:46:52;1002.449;;;-4.28;67.47168
72975;BME280;74127;54.228;37.632;2024-03-06T01:50:56;1002.372;;;-4.35;67.62891
72975;BME280;74127;54.228;37.632;2024-03-06T01:54:52;1002.413;;;-4.47;68.1748
72975;BME280;74127;54.228;37.632;2024-03-06T01:58:53;1002.494;;;-4.43;68.0459
72975;BME280;74127;54.228;37.632;2024-03-06T02:02:53;1002.488;;;-4.42;67.84766
72975;BME280;74127;54.228;37.632;2024-03-06T02:06:53;1002.488;;;-4.42;67.84766
72975;BME280;74127;54.228;37.632;2024-03-06T02:14:53;1002.514;;;-4.45;68.02246
72975;BME280;74127;54.228;37.632;2024-03-06T02:18:53;1002.677;;;-4.49;67.79492
72975;BME280;74127;54.228;37.632;2024-03-06T02:26:53;1002.613;;;-4.56;68.07617
72975;BME280;74127;54.228;37.632;2024-03-06T02:30:53;1002.688;;;-4.56;68.0459
72975;BME280;74127;54.228;37.632;2024-03-06T02:34:53;1002.576;;;-4.67;68.2998
72975;BME280;74127;54.228;37.632;2024-03-06T02:38:53;1002.642;;;-4.69;68.32813
72975;BME280;74127;54.228;37.632;2024-03-06T02:42:53;1002.688;;;-4.73;68.41504
72975;BME280;74127;54.228;37.632;2024-03-06T02:46:53;1002.688;;;-4.73;68.41504
72975;BME280;74127;54.228;37.632;2024-03-06T02:50:53;1002.815;;;-4.81;68.54785
72975;BME280;74127;54.228;37.632;2024-03-06T02:58:53;1002.852;;;-4.95;68.77539
72975;BME280;74127;54.228;37.632;2024-03-06T03:02:53;1002.843;;;-5.02;68.81738
72975;BME280;74127;54.228;37.632;2024-03-06T03:06:53;1002.843;;;-5.02;68.81738
72975;BME280;74127;54.228;37.632;2024-03-06T03:10:53;1002.826;;;-5.16;68.95117
72975;BME280;74127;54.228;37.632;2024-03-06T03:14:53;1002.865;;;-5.26;69.02832
72975;BME280;74127;54.228;37.632;2024-03-06T03:18:53;1002.876;;;-5.4;69.12988
72975;BME280;74127;54.228;37.632;2024-03-06T03:22:53;1002.888;;;-5.54;69.36914
72975;BME280;74127;54.228;37.632;2024-03-06T03:26:53;1002.888;;;-5.54;69.36914
72975;BME280;74127;54.228;37.632;2024-03-06T03:30:53;1002.876;;;-5.65;69.7041
72975;BME280;74127;54.228;37.632;2024-03-06T03:34:53;1002.915;;;-5.75;70.03223
72975;BME280;74127;54.228;37.632;2024-03-06T03:38:53;1002.897;;;-5.84;70.29883
72975;BME280;74127;54.228;37.632;2024-03-06T03:42:53;1002.89;;;-5.89;70.4873
72975;BME280;74127;54.228;37.632;2024-03-06T03:46:53;1002.89;;;-5.89;70.4873
72975;BME280;74127;54.228;37.632;2024-03-06T03:50:53;1002.947;;;-5.98;70.71289
72975;BME280;74127;54.228;37.632;2024-03-06T03:54:53;1003.02;;;-6.03;70.96387
72975;BME280;74127;54.228;37.632;2024-03-06T03:58:53;1002.999;;;-6.1;71.11035
72975;BME280;74127;54.228;37.632;2024-03-06T04:02:53;1002.974;;;-6.18;71.27148
72975;BME280;74127;54.228;37.632;2024-03-06T04:06:53;1002.974;;;-6.18;71.27148
72975;BME280;74127;54.228;37.632;2024-03-06T04:10:53;1003.076;;;-6.27;71.51855
72975;BME280;74127;54.228;37.632;2024-03-06T04:14:53;1003.101;;;-6.33;71.73633
72975;BME280;74127;54.228;37.632;2024-03-06T04:18:53;1003.113;;;-6.37;71.87402
72975;BME280;74127;54.228;37.632;2024-03-06T04:22:53;1003.1;;;-6.39;71.92188
72975;BME280;74127;54.228;37.632;2024-03-06T04:26:53;1003.1;;;-6.39;71.92188
72975;BME280;74127;54.228;37.632;2024-03-06T04:30:53;1003.167;;;-6.37;71.89355
72975;BME280;74127;54.228;37.632;2024-03-06T04:34:53;1003.22;;;-6.32;71.76758
72975;BME280;74127;54.228;37.632;2024-03-06T04:38:53;1003.281;;;-6.31;71.67773
72975;BME280;74127;54.228;37.632;2024-03-06T04:42:53;1003.35;;;-6.14;71.4248
72975;BME280;74127;54.228;37.632;2024-03-06T04:46:53;1003.35;;;-6.14;71.4248
72975;BME280;74127;54.228;37.632;2024-03-06T04:50:53;1003.351;;;-5.85;70.96191
72975;BME280;74127;54.228;37.632;2024-03-06T04:54:53;1003.394;;;-5.61;70.57715
72975;BME280;74127;54.228;37.632;2024-03-06T04:58:53;1003.427;;;-5.32;70.03125
72975;BME280;74127;54.228;37.632;2024-03-06T05:02:53;1003.468;;;-5.21;69.37988
72975;BME280;74127;54.228;37.632;2024-03-06T05:06:53;1003.468;;;-5.21;69.37988
72975;BME280;74127;54.228;37.632;2024-03-06T05:10:53;1003.434;;;-5.29;69.48242
72975;BME280;74127;54.228;37.632;2024-03-06T05:14:53;1003.495;;;-5.32;69.42578
72975;BME280;74127;54.228;37.632;2024-03-06T05:18:53;1003.521;;;-5.35;69.52539
72975;BME280;74127;54.228;37.632;2024-03-06T05:22:53;1003.525;;;-5.26;69.54102
72975;BME280;74127;54.228;37.632;2024-03-06T05:26:53;1003.525;;;-5.26;69.54102
72975;BME280;74127;54.228;37.632;2024-03-06T05:30:53;1003.537;;;-5.27;69.71484
72975;BME280;74127;54.228;37.632;2024-03-06T05:34:53;1003.525;;;-5.28;70.00586
72975;BME280;74127;54.228;37.632;2024-03-06T05:38:53;1003.511;;;-5.23;70.21191
72975;BME280;74127;54.228;37.632;2024-03-06T05:42:53;1003.576;;;-5.13;70.23926
72975;BME280;74127;54.228;37.632;2024-03-06T05:46:53;1003.576;;;-5.13;70.23926
72975;BME280;74127;54.228;37.632;2024-03-06T05:50:53;1003.585;;;-5.01;70.09277
72975;BME280;74127;54.228;37.632;2024-03-06T05:54:53;1003.614;;;-4.93;70.00195
72975;BME280;74127;54.228;37.632;2024-03-06T05:58:53;1003.601;;;-4.82;69.86426
72975;BME280;74127;54.228;37.632;2024-03-06T06:02:53;1003.608;;;-4.76;69.91504
72975;BME280;74127;54.228;37.632;2024-03-06T06:06:53;1003.608;;;-4.76;69.91504
72975;BME280;74127;54.228;37.632;2024-03-06T06:10:53;1003.692;;;-4.6;69.72168
72975;BME280;74127;54.228;37.632;2024-03-06T06:14:53;1003.742;;;-4.49;69.44922
72975;BME280;74127;54.228;37.632;2024-03-06T06:18:53;1003.72;;;-4.36;69.12402
72975;BME280;74127;54.228;37.632;2024-03-06T06:22:53;1003.752;;;-4.32;68.81641
72975;BME280;74127;54.228;37.632;2024-03-06T06:30:53;1003.767;;;-4.24;68.61914
72975;BME280;74127;54.228;37.632;2024-03-06T06:34:53;1003.726;;;-4.23;68.63281
72975;BME280;74127;54.228;37.632;2024-03-06T06:38:53;1003.755;;;-4.05;67.86719
72975;BME280;74127;54.228;37.632;2024-03-06T06:42:53;1003.878;;;-3.99;67.6123
72975;BME280;74127;54.228;37.632;2024-03-06T06:46:53;1003.878;;;-3.99;67.6123
72975;BME280;74127;54.228;37.632;2024-03-06T06:50:53;1003.798;;;-3.89;67.17676
72975;BME280;74127;54.228;37.632;2024-03-06T06:54:53;1003.742;;;-3.8;66.78418
72975;BME280;74127;54.228;37.632;2024-03-06T06:58:53;1003.768;;;-3.44;65.63379
72975;BME280;74127;54.228;37.632;2024-03-06T07:02:53;1003.716;;;-3.45;65.00293
72975;BME280;74127;54.228;37.632;2024-03-06T07:06:53;1003.716;;;-3.45;65.00293
72975;BME280;74127;54.228;37.632;2024-03-06T07:10:53;1003.819;;;-3.26;63.89746
72975;BME280;74127;54.228;37.632;2024-03-06T07:14:53;1003.777;;;-3.43;63.30469
72975;BME280;74127;54.228;37.632;2024-03-06T07:18:53;1003.888;;;-3.54;62.7207
72975;BME280;74127;54.228;37.632;2024-03-06T07:22:53;1003.836;;;-3.59;62.78906
72975;BME280;74127;54.228;37.632;2024-03-06T07:26:53;1003.836;;;-3.59;62.78906
72975;BME280;74127;54.228;37.632;2024-03-06T07:30:53;1003.938;;;-3.52;62.7666
72975;BME280;74127;54.228;37.632;2024-03-06T07:34:53;1004.017;;;-3.64;62.30762
72975;BME280;74127;54.228;37.632;2024-03-06T07:38:53;1004.08;;;-3.73;63.32324
72975;BME280;74127;54.228;37.632;2024-03-06T07:42:53;1003.978;;;-3.7;63.40234
72975;BME280;74127;54.228;37.632;2024-03-06T07:46:53;1003.978;;;-3.7;63.40234
72975;BME280;74127;54.228;37.632;2024-03-06T07:50:53;1004.082;;;-3.59;63.0918
72975;BME280;74127;54.228;37.632;2024-03-06T07:54:53;1004.057;;;-3.58;62.97754
72975;BME280;74127;54.228;37.632;2024-03-06T07:58:53;1003.982;;;-3.56;62.90723
72975;BME280;74127;54.228;37.632;2024-03-06T08:02:53;1004.031;;;-3.48;62.625
72975;BME280;74127;54.228;37.632;2024-03-06T08:06:53;1004.031;;;-3.48;62.625
72975;BME280;74127;54.228;37.632;2024-03-06T08:10:53;1004.048;;;-3.5;61.69824
72975;BME280;74127;54.228;37.632;2024-03-06T08:14:53;1004.017;;;-3.57;61.69824
72975;BME280;74127;54.228;37.632;2024-03-06T08:18:54;1003.945;;;-3.33;61.74414
72975;BME280;74127;54.228;37.632;2024-03-06T08:26:53;1003.996;;;-3.16;61.02148
72975;BME280;74127;54.228;37.632;2024-03-06T08:30:53;1004.054;;;-3.15;60.15039
72975;BME280;74127;54.228;37.632;2024-03-06T08:34:53;1004.008;;;-3.11;60.39844
72975;BME280;74127;54.228;37.632;2024-03-06T08:38:53;1004.044;;;-2.99;60.19531
72975;BME280;74127;54.228;37.632;2024-03-06T08:42:53;1003.912;;;-2.97;59.80859
72975;BME280;74127;54.228;37.632;2024-03-06T08:46:53;1003.912;;;-2.97;59.80859
72975;BME280;74127;54.228;37.632;2024-03-06T08:50:53;1003.925;;;-2.88;59.59961
72975;BME280;74127;54.228;37.632;2024-03-06T08:54:53;1003.878;;;-2.52;59.18652
72975;BME280;74127;54.228;37.632;2024-03-06T08:58:53;1003.953;;;-2.58;58.7666
72975;BME280;74127;54.228;37.632;2024-03-06T09:02:53;1003.927;;;-2.5;58.96777
72975;BME280;74127;54.228;37.632;2024-03-06T09:06:53;1003.927;;;-2.5;58.96777
72975;BME280;74127;54.228;37.632;2024-03-06T09:10:53;1003.978;;;-2.44;57.8584
72975;BME280;74127;54.228;37.632;2024-03-06T09:14:53;1004.036;;;-2.31;58.01367
72975;BME280;74127;54.228;37.632;2024-03-06T09:18:53;1004.02;;;-2.19;56.60547
72975;BME280;74127;54.228;37.632;2024-03-06T09:22:53;1003.91;;;-2.05;55.56836
72975;BME280;74127;54.228;37.632;2024-03-06T09:26:53;1003.91;;;-2.05;55.56836
72975;BME280;74127;54.228;37.632;2024-03-06T09:34:53;1003.95;;;-1.52;54.41113
72975;BME280;74127;54.228;37.632;2024-03-06T09:38:53;1003.898;;;-1.37;53.92383
72975;BME280;74127;54.228;37.632;2024-03-06T09:42:53;1003.944;;;-1.63;53.86914
72975;BME280;74127;54.228;37.632;2024-03-06T09:46:53;1003.944;;;-1.63;53.86914
72975;BME280;74127;54.228;37.632;2024-03-06T09:50:53;1003.885;;;-1.78;54.9707
72975;BME280;74127;54.228;37.632;2024-03-06T09:58:53;1003.804;;;-1.71;55.32715
72975;BME280;74127;54.228;37.632;2024-03-06T10:02:57;1003.776;;;-1.64;54.89355
72975;BME280;74127;54.228;37.632;2024-03-06T10:06:57;1003.776;;;-1.64;54.89355
72975;BME280;74127;54.228;37.632;2024-03-06T10:10:53;1003.744;;;-1.5;54.84668
72975;BME280;74127;54.228;37.632;2024-03-06T10:14:53;1003.613;;;-1.39;54.62793
72975;BME280;74127;54.228;37.632;2024-03-06T10:18:53;1003.654;;;-1.31;54.35352
72975;BME280;74127;54.228;37.632;2024-03-06T10:22:53;1003.633;;;-1.23;54.44824
72975;BME280;74127;54.228;37.632;2024-03-06T10:26:57;1003.633;;;-1.23;54.44824
72975;BME280;74127;54.228;37.632;2024-03-06T10:34:53;1003.599;;;-0.34;52.61035
72975;BME280;74127;54.228;37.632;2024-03-06T10:38:53;1003.537;;;-0.76;52.7168
72975;BME280;74127;54.228;37.632;2024-03-06T10:42:53;1003.512;;;-1.09;53.29004
72975;BME280;74127;54.228;37.632;2024-03-06T10:47:04;1003.512;;;-1.09;53.29004
72975;BME280;74127;54.228;37.632;2024-03-06T10:50:53;1003.563;;;-1.09;53.66113
72975;BME280;74127;54.228;37.632;2024-03-06T10:54:53;1003.443;;;-1.08;53.49316
72975;BME280;74127;54.228;37.632;2024-03-06T10:58:53;1003.459;;;-1.04;53.38281
72975;BME280;74127;54.228;37.632;2024-03-06T11:02:53;1003.388;;;-1.31;53.42285
72975;BME280;74127;54.228;37.632;2024-03-06T11:06:56;1003.388;;;-1.31;53.42285
72975;BME280;74127;54.228;37.632;2024-03-06T11:10:53;1003.426;;;-1.4;53.97168
72975;BME280;74127;54.228;37.632;2024-03-06T11:14:53;1003.395;;;-1.29;53.75293
72975;BME280;74127;54.228;37.632;2024-03-06T11:19:04;1003.367;;;-1.24;53.51563
72975;BME280;74127;54.228;37.632;2024-03-06T11:26:57;1003.429;;;-1.38;53.97363
72975;BME280;74127;54.228;37.632;2024-03-06T11:34:54;1003.323;;;-1.46;54.1748
72975;BME280;74127;54.228;37.632;2024-03-06T11:38:57;1003.299;;;-1.41;53.50488
72975;BME280;74127;54.228;37.632;2024-03-06T11:42:54;1003.321;;;-1.45;53.28711
72975;BME280;74127;54.228;37.632;2024-03-06T11:47:00;1003.321;;;-1.45;53.28711
72975;BME280;74127;54.228;37.632;2024-03-06T11:50:54;1003.202;;;-1.53;52.52637
72975;BME280;74127;54.228;37.632;2024-03-06T11:54:54;1003.172;;;-1.48;51.85547
72975;BME280;74127;54.228;37.632;2024-03-06T11:58:54;1003.194;;;-1.37;50.79883
72975;BME280;74127;54.228;37.632;2024-03-06T12:02:54;1003.235;;;-1.42;50.71875
72975;BME280;74127;54.228;37.632;2024-03-06T12:06:59;1003.235;;;-1.42;50.71875
72975;BME280;74127;54.228;37.632;2024-03-06T12:10:54;1003.168;;;-1.28;51.89063
72975;BME280;74127;54.228;37.632;2024-03-06T12:14:57;1003.039;;;-1.21;52.25977
72975;BME280;74127;54.228;37.632;2024-03-06T12:18:54;1002.984;;;-1.17;50.3877
72975;BME280;74127;54.228;37.632;2024-03-06T12:22:54;1002.926;;;-1.12;50.88184
72975;BME280;74127;54.228;37.632;2024-03-06T12:27:00;1002.926;;;-1.12;50.88184
72975;BME280;74127;54.228;37.632;2024-03-06T12:34:57;1002.833;;;-1.22;50.0957
72975;BME280;74127;54.228;37.632;2024-03-06T12:38:54;1002.746;;;-1.1;49.64355
72975;BME280;74127;54.228;37.632;2024-03-06T12:46:54;1002.768;;;-0.98;49.80762
72975;BME280;74127;54.228;37.632;2024-03-06T12:50:54;1002.694;;;-0.91;50.37695
72975;BME280;74127;54.228;37.632;2024-03-06T12:54:54;1002.684;;;-0.58;50.46875
72975;BME280;74127;54.228;37.632;2024-03-06T12:58:54;1002.645;;;-0.5;49.96973
72975;BME280;74127;54.228;37.632;2024-03-06T13:02:54;1002.562;;;-0.4;49.71582
72975;BME280;74127;54.228;37.632;2024-03-06T13:06:54;1002.562;;;-0.4;49.71582
72975;BME280;74127;54.228;37.632;2024-03-06T13:10:54;1002.474;;;-0.18;48.97559
72975;BME280;74127;54.228;37.632;2024-03-06T13:14:54;1002.43;;;-0.08;48.21094
72975;BME280;74127;54.228;37.632;2024-03-06T13:18:54;1002.494;;;-0.15;47.8623
72975;BME280;74127;54.228;37.632;2024-03-06T13:22:54;1002.447;;;-0.24;48.10742
72975;BME280;74127;54.228;37.632;2024-03-06T13:26:54;1002.447;;;-0.24;48.10742
72975;BME280;74127;54.228;37.632;2024-03-06T13:30:54;1002.495;;;-0.45;47.65918
72975;BME280;74127;54.228;37.632;2024-03-06T13:34:54;1002.515;;;-0.54;47.81836
72975;BME280;74127;54.228;37.632;2024-03-06T13:38:54;1002.429;;;-0.63;47.49023
72975;BME280;74127;54.228;37.632;2024-03-06T13:42:54;1002.44;;;-0.68;47.95117
72975;BME280;74127;54.228;37.632;2024-03-06T13:46:54;1002.44;;;-0.68;47.95117
72975;BME280;74127;54.228;37.632;2024-03-06T13:50:54;1002.406;;;-0.71;47.66211
72975;BME280;74127;54.228;37.632;2024-03-06T13:54:54;1002.387;;;-0.72;48.16016
72975;BME280;74127;54.228;37.632;2024-03-06T13:58:54;1002.371;;;-0.68;47.83496
72975;BME280;74127;54.228;37.632;2024-03-06T14:02:54;1002.395;;;-0.72;48.5
72975;BME280;74127;54.228;37.632;2024-03-06T14:06:54;1002.395;;;-0.72;48.5
72975;BME280;74127;54.228;37.632;2024-03-06T14:10:54;1002.407;;;-0.74;49.26172
72975;BME280;74127;54.228;37.632;2024-03-06T14:14:54;1002.483;;;-0.71;49.50879
72975;BME280;74127;54.228;37.632;2024-03-06T14:18:54;1002.424;;;-0.82;49.86816
72975;BME280;74127;54.228;37.632;2024-03-06T14:22:54;1002.461;;;-0.78;49.78711
72975;BME280;74127;54.228;37.632;2024-03-06T14:26:54;1002.461;;;-0.78;49.78711
72975;BME280;74127;54.228;37.632;2024-03-06T14:30:54;1002.421;;;-0.83;49.84473
72975;BME280;74127;54.228;37.632;2024-03-06T14:34:54;1002.537;;;-0.95;50.28809
72975;BME280;74127;54.228;37.632;2024-03-06T14:38:54;1002.571;;;-1.08;50.26074
72975;BME280;74127;54.228;37.632;2024-03-06T14:42:54;1002.631;;;-1.07;50.24219
72975;BME280;74127;54.228;37.632;2024-03-06T14:46:54;1002.631;;;-1.07;50.24219
72975;BME280;74127;54.228;37.632;2024-03-06T14:50:54;1002.595;;;-1.11;50.06641
72975;BME280;74127;54.228;37.632;2024-03-06T14:54:54;1002.615;;;-1.25;50.05957
72975;BME280;74127;54.228;37.632;2024-03-06T14:58:54;1002.61;;;-1.42;49.89258
72975;BME280;74127;54.228;37.632;2024-03-06T15:02:54;1002.659;;;-1.57;50.08789
72975;BME280;74127;54.228;37.632;2024-03-06T15:06:54;1002.659;;;-1.57;50.08789
72975;BME280;74127;54.228;37.632;2024-03-06T15:10:54;1002.624;;;-1.67;49.875
72975;BME280;74127;54.228;37.632;2024-03-06T15:14:54;1002.651;;;-1.76;49.95898
72975;BME280;74127;54.228;37.632;2024-03-06T15:18:54;1002.679;;;-1.85;50.09668
72975;BME280;74127;54.228;37.632;2024-03-06T15:22:54;1002.602;;;-1.95;49.72461
72975;BME280;74127;54.228;37.632;2024-03-06T15:26:54;1002.602;;;-1.95;49.72461
72975;BME280;74127;54.228;37.632;2024-03-06T15:30:54;1002.604;;;-2.05;49.46875
72975;BME280;74127;54.228;37.632;2024-03-06T15:34:54;1002.638;;;-2.13;49.07813
72975;BME280;74127;54.228;37.632;2024-03-06T15:38:54;1002.683;;;-2.18;49.30566
72975;BME280;74127;54.228;37.632;2024-03-06T15:42:54;1002.756;;;-2.21;49.4082
72975;BME280;74127;54.228;37.632;2024-03-06T15:46:54;1002.756;;;-2.21;49.4082
72975;BME280;74127;54.228;37.632;2024-03-06T15:50:54;1002.771;;;-2.26;49.625
72975;BME280;74127;54.228;37.632;2024-03-06T15:54:54;1002.811;;;-2.33;49.84863
72975;BME280;74127;54.228;37.632;2024-03-06T15:58:54;1002.807;;;-2.37;49.93945
72975;BME280;74127;54.228;37.632;2024-03-06T16:02:54;1002.812;;;-2.42;49.97461
72975;BME280;74127;54.228;37.632;2024-03-06T16:06:55;1002.812;;;-2.42;49.97461
72975;BME280;74127;54.228;37.632;2024-03-06T16:10:54;1002.845;;;-2.45;50.02539
72975;BME280;74127;54.228;37.632;2024-03-06T16:14:54;1002.837;;;-2.47;50.05371
72975;BME280;74127;54.228;37.632;2024-03-06T16:18:54;1002.851;;;-2.51;49.99609
72975;BME280;74127;54.228;37.632;2024-03-06T16:22:54;1002.864;;;-2.54;49.99316
72975;BME280;74127;54.228;37.632;2024-03-06T16:26:54;1002.864;;;-2.54;49.99316
72975;BME280;74127;54.228;37.632;2024-03-06T16:34:54;1002.825;;;-2.6;49.84961
72975;BME280;74127;54.228;37.632;2024-03-06T16:38:54;1002.775;;;-2.66;49.72559
72975;BME280;74127;54.228;37.632;2024-03-06T16:42:54;1002.73;;;-2.66;49.48242
72975;BME280;74127;54.228;37.632;2024-03-06T16:46:54;1002.73;;;-2.66;49.48242
72975;BME280;74127;54.228;37.632;2024-03-06T16:50:54;1002.72;;;-2.57;49.22754
72975;BME280;74127;54.228;37.632;2024-03-06T16:54:54;1002.775;;;-2.51;49.09863
72975;BME280;74127;54.228;37.632;2024-03-06T16:58:54;1002.723;;;-2.51;49.01367
72975;BME280;74127;54.228;37.632;2024-03-06T17:02:54;1002.78;;;-2.68;49.19531
72975;BME280;74127;54.228;37.632;2024-03-06T17:06:54;1002.78;;;-2.68;49.19531
72975;BME280;74127;54.228;37.632;2024-03-06T17:10:54;1002.755;;;-2.82;49.55859
72975;BME280;74127;54.228;37.632;2024-03-06T17:14:54;1002.723;;;-2.87;49.82813
72975;BME280;74127;54.228;37.632;2024-03-06T17:18:54;1002.728;;;-2.82;49.64355
72975;BME280;74127;54.228;37.632;2024-03-06T17:22:54;1002.688;;;-2.83;49.50488
72975;BME280;74127;54.228;37.632;2024-03-06T17:26:54;1002.688;;;-2.83;49.50488
72975;BME280;74127;54.228;37.632;2024-03-06T17:30:54;1002.661;;;-2.87;49.46875
72975;BME280;74127;54.228;37.632;2024-03-06T17:34:54;1002.674;;;-2.92;49.35645
72975;BME280;74127;54.228;37.632;2024-03-06T17:38:54;1002.721;;;-3.03;49.39648
72975;BME280;74127;54.228;37.632;2024-03-06T17:42:54;1002.732;;;-3.01;49.50391
72975;BME280;74127;54.228;37.632;2024-03-06T17:46:54;1002.732;;;-3.01;49.50391
72975;BME280;74127;54.228;37.632;2024-03-06T17:50:54;1002.738;;;-2.82;49.27344
72975;BME280;74127;54.228;37.632;2024-03-06T17:54:54;1002.797;;;-2.76;49.03711
72975;BME280;74127;54.228;37.632;2024-03-06T17:58:54;1002.768;;;-2.8;49.08594
72975;BME280;74127;54.228;37.632;2024-03-06T18:02:54;1002.735;;;-2.86;49.0791
72975;BME280;74127;54.228;37.632;2024-03-06T18:06:54;1002.735;;;-2.86;49.0791
72975;BME280;74127;54.228;37.632;2024-03-06T18:10:54;1002.732;;;-2.92;49.24023
72975;BME280;74127;54.228;37.632;2024-03-06T18:14:57;1002.721;;;-2.97;49.3623
72975;BME280;74127;54.228;37.632;2024-03-06T18:18:54;1002.763;;;-3.02;49.67188
72975;BME280;74127;54.228;37.632;2024-03-06T18:22:54;1002.743;;;-3.13;50.28223
72975;BME280;74127;54.228;37.632;2024-03-06T18:26:54;1002.743;;;-3.13;50.28223
72975;BME280;74127;54.228;37.632;2024-03-06T18:30:54;1002.716;;;-3.16;50.41504
72975;BME280;74127;54.228;37.632;2024-03-06T18:34:54;1002.745;;;-3.19;49.88477
72975;BME280;74127;54.228;37.632;2024-03-06T18:38:54;1002.744;;;-3.2;49.60938
72975;BME280;74127;54.228;37.632;2024-03-06T18:42:54;1002.72;;;-3.27;49.52734
72975;BME280;74127;54.228;37.632;2024-03-06T18:46:54;1002.72;;;-3.27;49.52734
72975;BME280;74127;54.228;37.632;2024-03-06T18:50:54;1002.711;;;-3.26;49.61133
72975;BME280;74127;54.228;37.632;2024-03-06T18:54:54;1002.781;;;-3.25;49.55078
72975;BME280;74127;54.228;37.632;2024-03-06T18:58:54;1002.739;;;-3.31;49.58496
72975;BME280;74127;54.228;37.632;2024-03-06T19:02:54;1002.747;;;-3.3;49.91406
72975;BME280;74127;54.228;37.632;2024-03-06T19:10:54;1002.739;;;-3.25;49.86719
72975;BME280;74127;54.228;37.632;2024-03-06T19:14:54;1002.716;;;-3.3;50.12402
72975;BME280;74127;54.228;37.632;2024-03-06T19:18:54;1002.742;;;-3.35;50.73145
72975;BME280;74127;54.228;37.632;2024-03-06T19:22:54;1002.697;;;-3.4;50.84961
72975;BME280;74127;54.228;37.632;2024-03-06T19:26:54;1002.697;;;-3.4;50.84961
72975;BME280;74127;54.228;37.632;2024-03-06T19:30:54;1002.697;;;-3.38;50.84277
72975;BME280;74127;54.228;37.632;2024-03-06T19:34:54;1002.734;;;-3.38;51
72975;BME280;74127;54.228;37.632;2024-03-06T19:38:54;1002.724;;;-3.43;51.11035
72975;BME280;74127;54.228;37.632;2024-03-06T19:42:54;1002.7;;;-3.45;51.3291
72975;BME280;74127;54.228;37.632;2024-03-06T19:46:54;1002.7;;;-3.45;51.3291
72975;BME280;74127;54.228;37.632;2024-03-06T19:50:54;1002.781;;;-3.51;51.70215
72975;BME280;74127;54.228;37.632;2024-03-06T19:54:54;1002.701;;;-3.52;51.94141
72975;BME280;74127;54.228;37.632;2024-03-06T19:58:54;1002.711;;;-3.43;51.61621
72975;BME280;74127;54.228;37.632;2024-03-06T20:02:54;1002.685;;;-3.41;51.78711
72975;BME280;74127;54.228;37.632;2024-03-06T20:06:54;1002.685;;;-3.41;51.78711
72975;BME280;74127;54.228;37.632;2024-03-06T20:10:54;1002.678;;;-3.6;52.45996
72975;BME280;74127;54.228;37.632;2024-03-06T20:14:54;1002.756;;;-3.76;52.89258
72975;BME280;74127;54.228;37.632;2024-03-06T20:18:54;1002.695;;;-3.88;53.24609
72975;BME280;74127;54.228;37.632;2024-03-06T20:22:55;1002.759;;;-3.97;53.60254
72975;BME280;74127;54.228;37.632;2024-03-06T20:26:54;1002.759;;;-3.97;53.60254
72975;BME280;74127;54.228;37.632;2024-03-06T20:30:54;1002.781;;;-4.26;54.01855
72975;BME280;74127;54.228;37.632;2024-03-06T20:34:54;1002.824;;;-4.53;54.61328
72975;BME280;74127;54.228;37.632;2024-03-06T20:38:54;1002.837;;;-4.62;54.69629
72975;BME280;74127;54.228;37.632;2024-03-06T20:42:55;1002.758;;;-4.75;54.99414
72975;BME280;74127;54.228;37.632;2024-03-06T20:46:54;1002.758;;;-4.75;54.99414
72975;BME280;74127;54.228;37.632;2024-03-06T20:50:54;1002.731;;;-4.79;54.99902
72975;BME280;74127;54.228;37.632;2024-03-06T20:54:54;1002.77;;;-4.84;55.16113
72975;BME280;74127;54.228;37.632;2024-03-06T20:58:55;1002.731;;;-4.94;55.3877
72975;BME280;74127;54.228;37.632;2024-03-06T21:02:55;1002.724;;;-5.09;55.75586
72975;BME280;74127;54.228;37.632;2024-03-06T21:06:55;1002.724;;;-5.09;55.75586
72975;BME280;74127;54.228;37.632;2024-03-06T21:10:55;1002.729;;;-5.2;56.35938